Time;durP1;ratioP1;P1;durP2;ratioP2;P2;SDS_P1;SDS_P2;PMS_P1;PMS_P2;Temp;Humidity;BMP_temperature;BMP_pressure;BME280_temperature;BME280_humidity;BME280_pressure;Samples;Min_cycle;Max_cycle;Signal;HPM_P1;HPM_P2
2020/12/27 00:00:50;;;;;;;4.30;2.77;;;18.80;31.70;;;;;;8327997;28;20046;-49
2020/12/27 00:04:50;;;;;;;2.80;2.03;;;18.80;31.70;;;;;;8332226;28;20036;-48
2020/12/27 00:08:51;;;;;;;3.43;1.90;;;18.80;31.70;;;;;;8326249;28;20041;-47
2020/12/27 00:12:52;;;;;;;3.80;1.80;;;18.70;31.70;;;;;;8327401;28;20391;-49
2020/12/27 00:16:52;;;;;;;3.27;2.07;;;18.70;31.70;;;;;;8326319;28;20046;-52
2020/12/27 00:20:53;;;;;;;2.50;1.90;;;18.70;31.70;;;;;;8361520;28;20069;-47
2020/12/27 00:24:53;;;;;;;3.63;2.37;;;18.70;31.70;;;;;;8360126;28;20044;-49
2020/12/27 00:28:54;;;;;;;3.43;2.27;;;18.70;31.70;;;;;;8337021;28;20048;-47
2020/12/27 00:32:54;;;;;;;3.80;2.20;;;18.70;31.70;;;;;;8331884;28;20528;-48
2020/12/27 00:36:58;;;;;;;2.93;2.03;;;18.70;31.70;;;;;;8361916;28;20040;-48
2020/12/27 00:40:58;;;;;;;3.70;2.20;;;18.60;31.60;;;;;;8338971;28;20041;-48
2020/12/27 00:44:59;;;;;;;3.87;2.40;;;18.60;31.70;;;;;;8325229;28;20034;-48
2020/12/27 00:48:59;;;;;;;3.47;2.00;;;18.60;31.60;;;;;;8342128;28;20132;-47
2020/12/27 00:53:00;;;;;;;2.80;2.20;;;18.60;31.60;;;;;;8359293;28;20040;-48
2020/12/27 00:57:00;;;;;;;2.57;2.07;;;18.60;31.60;;;;;;8329782;28;20037;-47
2020/12/27 01:01:02;;;;;;;3.83;2.37;;;18.60;31.70;;;;;;8341976;28;20065;-47
2020/12/27 01:05:03;;;;;;;4.95;2.35;;;18.60;31.60;;;;;;8358978;28;20044;-47
2020/12/27 01:09:05;;;;;;;2.63;2.00;;;18.50;31.60;;;;;;8349228;28;20072;-48
2020/12/27 01:13:05;;;;;;;2.47;1.95;;;18.50;31.60;;;;;;8330288;28;20394;-47
2020/12/27 01:17:06;;;;;;;3.70;2.07;;;18.50;31.60;;;;;;8323836;28;20045;-48
2020/12/27 01:21:06;;;;;;;4.20;2.20;;;18.50;31.60;;;;;;8333433;28;20037;-51
2020/12/27 01:25:09;;;;;;;4.50;2.17;;;18.50;31.60;;;;;;8357930;28;20401;-48
2020/12/27 01:29:10;;;;;;;3.85;2.00;;;18.50;32.10;;;;;;8330740;28;20095;-49
2020/12/27 01:33:10;;;;;;;3.53;2.20;;;18.50;31.60;;;;;;8338873;28;20394;-47
2020/12/27 01:37:11;;;;;;;2.13;1.70;;;18.40;31.50;;;;;;8340916;28;20048;-47
2020/12/27 01:41:12;;;;;;;3.93;2.20;;;18.40;31.60;;;;;;8324034;28;20406;-47
2020/12/27 01:45:12;;;;;;;5.20;2.60;;;18.40;31.50;;;;;;8348506;28;20040;-49
2020/12/27 01:49:13;;;;;;;3.43;2.10;;;18.40;31.60;;;;;;8346612;28;20475;-48
2020/12/27 01:53:13;;;;;;;3.57;2.30;;;18.40;31.50;;;;;;8330014;28;20068;-49
2020/12/27 01:57:18;;;;;;;3.20;1.90;;;18.30;31.50;;;;;;8324567;28;20107;-48
2020/12/27 02:01:19;;;;;;;3.47;2.03;;;18.30;31.50;;;;;;8324720;28;20037;-48
2020/12/27 02:05:19;;;;;;;2.03;1.83;;;18.30;31.50;;;;;;8351546;28;20501;-48
2020/12/27 02:09:20;;;;;;;2.27;2.00;;;18.40;31.50;;;;;;8359861;28;20091;-47
2020/12/27 02:13:21;;;;;;;2.93;2.00;;;18.30;31.50;;;;;;8339478;28;20034;-47
2020/12/27 02:17:21;;;;;;;3.40;2.17;;;18.30;31.50;;;;;;8325100;28;20041;-49
2020/12/27 02:21:22;;;;;;;2.47;2.00;;;18.30;31.50;;;;;;8346842;28;20030;-48
2020/12/27 02:25:23;;;;;;;2.90;2.35;;;18.30;31.50;;;;;;8329042;28;20116;-47
2020/12/27 02:29:25;;;;;;;2.73;1.90;;;18.30;31.50;;;;;;8322596;28;20111;-47
2020/12/27 02:33:25;;;;;;;3.17;2.45;;;18.20;31.50;;;;;;8335358;28;20112;-48
2020/12/27 02:37:26;;;;;;;2.87;2.03;;;18.30;31.50;;;;;;8337558;28;20033;-48
2020/12/27 02:41:26;;;;;;;2.63;2.10;;;18.20;31.50;;;;;;8359640;28;20083;-50
2020/12/27 02:45:27;;;;;;;3.47;2.00;;;18.20;31.50;;;;;;8362942;28;20100;-51
2020/12/27 02:49:27;;;;;;;3.33;1.83;;;18.20;31.50;;;;;;8363008;28;20056;-49
2020/12/27 02:53:28;;;;;;;3.50;2.00;;;18.20;31.50;;;;;;8361923;28;20045;-50
2020/12/27 02:57:28;;;;;;;5.10;2.33;;;18.20;31.50;;;;;;8351531;28;20044;-48
2020/12/27 03:01:29;;;;;;;2.30;2.00;;;18.20;31.50;;;;;;8354393;28;20041;-47
2020/12/27 03:05:29;;;;;;;2.80;2.20;;;18.10;31.40;;;;;;8332828;28;20487;-48
2020/12/27 03:09:30;;;;;;;2.47;2.10;;;18.10;31.40;;;;;;8329702;28;20136;-47
2020/12/27 03:13:32;;;;;;;4.20;2.73;;;18.10;31.40;;;;;;8329530;28;20113;-48
2020/12/27 03:17:33;;;;;;;3.13;2.38;;;18.10;31.40;;;;;;8332087;28;20029;-47
2020/12/27 03:21:33;;;;;;;3.27;2.40;;;18.10;31.40;;;;;;8329442;28;20083;-48
2020/12/27 03:25:34;;;;;;;2.63;2.30;;;18.10;31.40;;;;;;8329052;28;20121;-50
2020/12/27 03:29:34;;;;;;;2.77;2.27;;;18.10;31.40;;;;;;8327269;28;20045;-47
2020/12/27 03:33:35;;;;;;;3.10;2.33;;;18.10;31.40;;;;;;8333298;28;20032;-47
2020/12/27 03:37:36;;;;;;;4.10;2.40;;;18.10;31.40;;;;;;8328692;28;20033;-49
2020/12/27 03:41:37;;;;;;;3.70;2.83;;;18.10;31.40;;;;;;8327463;28;20034;-48
2020/12/27 03:45:39;;;;;;;3.43;2.40;;;18.00;31.40;;;;;;8328232;28;20791;-48
2020/12/27 03:49:40;;;;;;;3.50;2.10;;;18.00;31.40;;;;;;8328026;28;20041;-48
2020/12/27 03:53:40;;;;;;;2.97;2.43;;;18.00;31.40;;;;;;8331159;28;20026;-49
2020/12/27 03:57:41;;;;;;;2.93;2.10;;;18.00;31.40;;;;;;8328293;28;20033;-48
2020/12/27 04:01:42;;;;;;;2.80;2.10;;;18.00;31.40;;;;;;8328306;28;20454;-47
2020/12/27 04:05:42;;;;;;;3.53;2.40;;;18.00;31.40;;;;;;8326226;28;20389;-48
2020/12/27 04:09:43;;;;;;;3.20;2.03;;;18.00;31.40;;;;;;8332441;28;20037;-49
2020/12/27 04:13:43;;;;;;;3.07;2.23;;;18.00;31.40;;;;;;8328167;28;20075;-47
2020/12/27 04:17:44;;;;;;;4.70;2.47;;;18.00;31.40;;;;;;8325762;28;20491;-48
2020/12/27 04:21:45;;;;;;;2.60;2.00;;;18.00;31.30;;;;;;8327351;28;20033;-49
2020/12/27 04:25:46;;;;;;;3.38;2.63;;;18.00;31.20;;;;;;8329173;28;20082;-47
2020/12/27 04:29:46;;;;;;;3.87;2.40;;;18.00;31.10;;;;;;8328194;28;20033;-48
2020/12/27 04:33:48;;;;;;;3.40;2.03;;;18.00;31.00;;;;;;8340890;28;20421;-48
2020/12/27 04:37:48;;;;;;;4.10;2.40;;;18.10;31.10;;;;;;8360014;28;20087;-48
2020/12/27 04:41:49;;;;;;;3.23;2.30;;;18.10;31.00;;;;;;8327200;28;20033;-48
2020/12/27 04:45:59;;;;;;;2.97;2.10;;;18.10;31.00;;;;;;8330858;28;20036;-48
2020/12/27 04:50:00;;;;;;;3.45;2.22;;;18.10;31.00;;;;;;8326466;28;20491;-48
2020/12/27 04:54:00;;;;;;;2.70;1.90;;;18.20;31.00;;;;;;8324733;28;20029;-47
2020/12/27 04:58:02;;;;;;;2.37;1.90;;;18.10;30.90;;;;;;8325670;28;20446;-49
2020/12/27 05:02:03;;;;;;;2.58;2.00;;;18.20;30.90;;;;;;8330077;28;20042;-49
2020/12/27 05:06:12;;;;;;;3.97;2.50;;;18.20;30.90;;;;;;8348786;28;20080;-48
2020/12/27 05:10:13;;;;;;;3.78;2.17;;;18.20;30.90;;;;;;8343560;28;20456;-47
2020/12/27 05:14:13;;;;;;;2.33;1.93;;;18.20;30.90;;;;;;8355874;28;20083;-48
2020/12/27 05:18:14;;;;;;;2.43;2.07;;;18.20;30.90;;;;;;8326060;28;20483;-48
2020/12/27 05:22:14;;;;;;;2.10;1.90;;;18.30;30.90;;;;;;8330193;28;20117;-48
2020/12/27 05:26:15;;;;;;;3.40;2.37;;;18.20;30.80;;;;;;8349264;28;20379;-48
2020/12/27 05:30:17;;;;;;;2.70;2.10;;;18.30;30.80;;;;;;8358018;28;20037;-47
2020/12/27 05:34:19;;;;;;;2.50;2.28;;;18.30;30.80;;;;;;8357995;28;20049;-48
2020/12/27 05:38:19;;;;;;;2.70;1.90;;;18.30;30.70;;;;;;8360955;28;20025;-47
2020/12/27 05:42:25;;;;;;;2.73;2.07;;;18.30;30.80;;;;;;8348206;28;20544;-48
2020/12/27 05:46:27;;;;;;;2.70;2.00;;;18.40;30.70;;;;;;8325071;28;20044;-50
2020/12/27 05:50:32;;;;;;;3.30;2.40;;;18.40;30.70;;;;;;8323222;28;20033;-48
2020/12/27 05:54:35;;;;;;;3.08;2.05;;;18.30;30.70;;;;;;8336619;28;20060;-49
2020/12/27 05:58:38;;;;;;;3.22;2.03;;;18.40;30.70;;;;;;8362234;28;20033;-48
2020/12/27 06:02:41;;;;;;;2.92;2.05;;;18.30;30.70;;;;;;8356132;28;20375;-48
2020/12/27 06:07:00;;;;;;;2.75;2.05;;;18.40;30.70;;;;;;8357821;28;20520;-48
2020/12/27 06:11:06;;;;;;;4.13;2.28;;;18.40;30.60;;;;;;8357505;28;20096;-48
2020/12/27 06:15:08;;;;;;;3.88;2.40;;;18.40;30.60;;;;;;8359129;28;20095;-49
2020/12/27 06:19:24;;;;;;;2.65;2.20;;;18.40;30.70;;;;;;8368844;28;20029;-47
2020/12/27 06:23:26;;;;;;;4.10;2.30;;;18.40;31.10;;;;;;8359892;28;20029;-48
2020/12/27 06:27:28;;;;;;;2.50;1.92;;;18.40;30.60;;;;;;8342011;28;20067;-48
2020/12/27 06:31:29;;;;;;;2.55;1.90;;;18.40;30.60;;;;;;8363585;28;20021;-49
2020/12/27 06:35:35;;;;;;;3.42;2.15;;;18.40;30.60;;;;;;8338412;28;20429;-47
2020/12/27 06:39:36;;;;;;;2.55;2.22;;;18.40;30.60;;;;;;8330552;28;20120;-48
2020/12/27 06:43:46;;;;;;;2.60;2.30;;;18.40;30.60;;;;;;8330571;28;20029;-47
2020/12/27 06:47:48;;;;;;;3.50;2.10;;;18.40;30.60;;;;;;8328523;28;20052;-47
2020/12/27 06:51:48;;;;;;;2.00;1.70;;;18.40;30.60;;;;;;8330570;28;20426;-47
2020/12/27 06:55:53;;;;;;;4.20;2.20;;;18.50;30.60;;;;;;8334412;28;20080;-48
2020/12/27 06:59:54;;;;;;;2.63;2.03;;;18.40;30.50;;;;;;8328324;28;20510;-48
2020/12/27 07:04:14;;;;;;;3.47;2.33;;;18.40;30.50;;;;;;8329988;28;20051;-48
2020/12/27 07:08:35;;;;;;;3.50;2.35;;;18.40;30.50;;;;;;8328066;28;20041;-48
2020/12/27 07:12:36;;;;;;;2.35;2.15;;;18.50;30.60;;;;;;8329274;28;20072;-47
2020/12/27 07:16:54;;;;;;;3.85;2.38;;;18.50;30.50;;;;;;8333732;28;20037;-47
2020/12/27 07:20:56;;;;;;;3.20;2.58;;;18.50;30.50;;;;;;8334081;28;20072;-48
2020/12/27 07:25:00;;;;;;;2.90;2.25;;;18.40;30.50;;;;;;8361287;28;20125;-47
2020/12/27 07:29:05;;;;;;;3.50;2.20;;;18.40;30.50;;;;;;8337780;28;20050;-46
2020/12/27 07:33:09;;;;;;;3.03;2.17;;;18.50;30.50;;;;;;8360354;28;20056;-48
2020/12/27 07:37:09;;;;;;;3.40;2.20;;;18.50;30.50;;;;;;8349234;28;20113;-47
2020/12/27 07:41:10;;;;;;;3.20;2.70;;;18.50;30.50;;;;;;8326736;28;20025;-48
2020/12/27 07:45:12;;;;;;;3.30;2.33;;;18.50;30.50;;;;;;8337531;28;20033;-48
2020/12/27 07:49:13;;;;;;;3.10;2.33;;;18.50;30.40;;;;;;8361096;28;20543;-48
2020/12/27 07:53:19;;;;;;;3.50;2.20;;;18.50;30.50;;;;;;8364122;28;20045;-48
2020/12/27 07:57:19;;;;;;;3.30;2.20;;;18.50;30.50;;;;;;8351178;28;20092;-48
2020/12/27 08:01:22;;;;;;;3.47;2.73;;;18.50;30.40;;;;;;8328283;28;20033;-50
2020/12/27 08:05:23;;;;;;;3.47;2.30;;;18.50;30.60;;;;;;8326115;28;20036;-49
2020/12/27 08:09:25;;;;;;;3.17;2.10;;;18.50;30.40;;;;;;8330133;28;20045;-48
2020/12/27 08:13:25;;;;;;;3.38;2.20;;;18.50;30.40;;;;;;8331331;28;20402;-47
2020/12/27 08:17:26;;;;;;;5.83;4.20;;;18.50;30.40;;;;;;8325992;28;20106;-49
2020/12/27 08:21:26;;;;;;;2.83;2.53;;;18.50;30.40;;;;;;8327524;28;20386;-48
2020/12/27 08:25:27;;;;;;;3.23;2.93;;;18.50;30.30;;;;;;8327254;28;20037;-49
2020/12/27 08:29:28;;;;;;;4.65;2.80;;;18.50;30.30;;;;;;8329849;28;20040;-51
2020/12/27 08:33:28;;;;;;;5.03;3.00;;;18.50;30.40;;;;;;8338495;28;20383;-47
2020/12/27 08:37:34;;;;;;;4.10;2.77;;;18.50;30.30;;;;;;8339214;28;20061;-48
2020/12/27 08:41:38;;;;;;;3.33;2.72;;;18.50;30.40;;;;;;8329114;28;20123;-47
2020/12/27 08:45:42;;;;;;;3.17;2.45;;;18.50;30.30;;;;;;8364210;28;20025;-48
2020/12/27 08:49:57;;;;;;;4.00;2.80;;;18.50;30.30;;;;;;8359636;28;20049;-49
2020/12/27 08:53:59;;;;;;;3.63;2.80;;;18.50;30.20;;;;;;8350812;28;20087;-47
2020/12/27 08:58:00;;;;;;;;;;;18.50;30.30;;;;;;8326652;28;20036;-47
2020/12/27 09:02:10;;;;;;;3.35;2.60;;;18.60;30.40;;;;;;8350313;28;19924;-48
2020/12/27 09:06:14;;;;;;;4.10;3.10;;;18.50;30.30;;;;;;8361543;28;20451;-49
2020/12/27 09:10:23;;;;;;;3.58;2.75;;;18.50;30.30;;;;;;8359081;28;20482;-47
2020/12/27 09:14:30;;;;;;;3.38;2.75;;;18.50;30.30;;;;;;8329927;28;20133;-47
2020/12/27 09:18:33;;;;;;;5.10;3.33;;;18.50;30.30;;;;;;8325527;28;20211;-47
2020/12/27 09:22:33;;;;;;;3.38;2.88;;;18.60;30.30;;;;;;8325401;28;20041;-48
2020/12/27 09:26:34;;;;;;;3.37;3.00;;;18.60;30.40;;;;;;8328046;28;20090;-48
2020/12/27 09:30:34;;;;;;;3.97;2.97;;;18.60;30.30;;;;;;8337759;28;20061;-49
2020/12/27 09:34:35;;;;;;;3.90;2.83;;;18.60;30.30;;;;;;8358322;28;20040;-49
2020/12/27 09:38:39;;;;;;;3.63;2.87;;;18.60;30.20;;;;;;8327365;28;20042;-49
2020/12/27 09:42:39;;;;;;;3.83;2.90;;;18.60;30.30;;;;;;8329417;28;20034;-47
2020/12/27 09:46:51;;;;;;;4.23;3.07;;;18.60;30.30;;;;;;8324830;28;20493;-47
2020/12/27 09:50:52;;;;;;;3.67;2.55;;;18.60;30.30;;;;;;8323224;28;20399;-47
2020/12/27 09:54:52;;;;;;;3.13;2.73;;;18.60;30.30;;;;;;8339672;28;20033;-49
2020/12/27 09:58:53;;;;;;;3.13;2.67;;;18.60;30.30;;;;;;8357770;28;20701;-49
2020/12/27 10:02:53;;;;;;;3.07;2.53;;;18.60;30.20;;;;;;8354357;28;20037;-47
2020/12/27 10:06:54;;;;;;;3.37;3.07;;;18.60;30.30;;;;;;8324299;28;20045;-48
2020/12/27 10:10:54;;;;;;;2.87;2.50;;;18.60;30.20;;;;;;8324554;28;20398;-48
2020/12/27 10:14:55;;;;;;;4.93;3.00;;;18.60;30.20;;;;;;8353888;28;20167;-49
2020/12/27 10:18:55;;;;;;;3.50;2.90;;;18.70;30.30;;;;;;8361931;28;20515;-48
2020/12/27 10:22:56;;;;;;;2.93;2.57;;;18.70;30.30;;;;;;8356779;28;20119;-47
2020/12/27 10:26:56;;;;;;;2.40;2.20;;;18.70;30.20;;;;;;8330670;28;20060;-50
2020/12/27 10:30:57;;;;;;;2.77;2.50;;;18.70;30.20;;;;;;8357072;28;20029;-52
2020/12/27 10:34:57;;;;;;;2.80;2.40;;;18.70;30.20;;;;;;8338088;28;20075;-50
2020/12/27 10:38:58;;;;;;;2.80;2.30;;;18.70;30.30;;;;;;8354348;28;20068;-49
2020/12/27 10:42:58;;;;;;;4.57;3.07;;;18.70;30.20;;;;;;8356875;28;20045;-48
2020/12/27 10:46:59;;;;;;;3.43;2.90;;;18.70;30.20;;;;;;8356584;28;20095;-48
2020/12/27 10:50:59;;;;;;;4.03;2.73;;;18.70;30.20;;;;;;8323075;28;20033;-47
2020/12/27 10:55:00;;;;;;;3.40;2.60;;;18.70;30.20;;;;;;8344005;28;20029;-47
2020/12/27 10:59:01;;;;;;;3.90;2.47;;;18.70;30.20;;;;;;8356955;28;20079;-48
2020/12/27 11:03:01;;;;;;;2.33;2.13;;;18.70;30.10;;;;;;8353441;28;20037;-49
2020/12/27 11:07:02;;;;;;;2.90;2.50;;;18.70;30.20;;;;;;8324676;28;20042;-49
2020/12/27 11:11:02;;;;;;;3.00;2.70;;;18.70;30.20;;;;;;8334101;28;20033;-50
2020/12/27 11:15:03;;;;;;;3.47;2.80;;;18.70;30.20;;;;;;8335960;28;20041;-47
2020/12/27 11:19:03;;;;;;;2.47;2.27;;;18.70;30.10;;;;;;8362093;28;20048;-49
2020/12/27 11:23:04;;;;;;;3.00;2.30;;;18.70;30.20;;;;;;8362256;28;20354;-48
2020/12/27 11:27:04;;;;;;;2.80;2.20;;;18.70;30.20;;;;;;8353493;28;20048;-48
2020/12/27 11:31:05;;;;;;;4.17;2.60;;;18.70;30.20;;;;;;8332665;28;20033;-48
2020/12/27 11:35:05;;;;;;;3.13;2.40;;;18.70;30.20;;;;;;8353828;28;20037;-48
2020/12/27 11:39:06;;;;;;;3.90;2.37;;;18.80;30.20;;;;;;8335769;28;20032;-51
2020/12/27 11:43:06;;;;;;;3.30;2.30;;;18.80;30.30;;;;;;8344808;28;20029;-47
2020/12/27 11:47:07;;;;;;;2.97;2.13;;;18.80;30.20;;;;;;8331892;28;20060;-48
2020/12/27 11:51:08;;;;;;;2.85;2.22;;;18.80;30.20;;;;;;8336643;28;20037;-48
2020/12/27 11:55:08;;;;;;;3.07;2.50;;;18.80;30.20;;;;;;8360872;28;20099;-48
2020/12/27 11:59:11;;;;;;;4.03;2.17;;;18.80;30.20;;;;;;8334083;28;20060;-47
2020/12/27 12:03:11;;;;;;;2.53;1.98;;;18.80;30.20;;;;;;8342015;28;20130;-52
2020/12/27 12:07:12;;;;;;;2.53;2.00;;;18.80;30.10;;;;;;8343528;28;20049;-50
2020/12/27 12:11:12;;;;;;;2.60;2.23;;;18.80;30.10;;;;;;8326250;28;20482;-47
2020/12/27 12:15:13;;;;;;;2.37;2.10;;;18.80;30.10;;;;;;8336899;28;20033;-48
2020/12/27 12:19:13;;;;;;;2.53;2.33;;;18.80;30.10;;;;;;8360417;28;20041;-49
2020/12/27 12:23:15;;;;;;;3.53;2.23;;;18.80;30.10;;;;;;8363414;28;20041;-49
2020/12/27 12:27:15;;;;;;;2.42;2.15;;;18.80;30.10;;;;;;8350306;28;20041;-47
2020/12/27 12:31:18;;;;;;;2.90;2.10;;;18.80;30.10;;;;;;8327115;28;20435;-49
2020/12/27 12:35:18;;;;;;;3.65;2.17;;;18.80;30.10;;;;;;8327080;28;20070;-48
2020/12/27 12:39:19;;;;;;;3.10;2.30;;;18.80;30.10;;;;;;8364320;28;20033;-48
2020/12/27 12:43:19;;;;;;;3.77;2.27;;;18.80;30.10;;;;;;8341593;28;20037;-51
2020/12/27 12:47:20;;;;;;;3.43;2.07;;;18.80;30.10;;;;;;8349306;28;20378;-48
2020/12/27 12:51:23;;;;;;;3.27;2.17;;;18.80;30.10;;;;;;8326577;28;20025;-48
2020/12/27 12:55:24;;;;;;;2.75;2.00;;;18.80;30.10;;;;;;8330913;28;20122;-49
2020/12/27 12:59:24;;;;;;;1.80;1.63;;;18.80;30.10;;;;;;8324932;28;20029;-50
2020/12/27 13:03:25;;;;;;;3.17;2.03;;;18.80;30.10;;;;;;8326166;28;20037;-49
2020/12/27 13:07:25;;;;;;;3.07;2.03;;;18.90;30.00;;;;;;8325948;28;20048;-49
2020/12/27 13:11:26;;;;;;;3.17;1.87;;;18.90;30.10;;;;;;8348834;28;20042;-49
2020/12/27 13:15:27;;;;;;;3.08;1.83;;;18.90;30.10;;;;;;8330347;28;20056;-50
2020/12/27 13:19:27;;;;;;;2.83;2.20;;;18.90;30.10;;;;;;8345495;28;20033;-49
2020/12/27 13:23:28;;;;;;;5.07;2.20;;;18.90;30.00;;;;;;8353405;28;20068;-48
2020/12/27 13:27:29;;;;;;;3.83;2.47;;;18.90;30.10;;;;;;8337055;28;20036;-48
2020/12/27 13:31:35;;;;;;;3.27;2.10;;;18.90;30.60;;;;;;8343290;28;20509;-48
2020/12/27 13:35:35;;;;;;;3.33;2.30;;;18.90;30.10;;;;;;8323863;28;20037;-49
2020/12/27 13:39:36;;;;;;;3.40;2.20;;;18.90;30.00;;;;;;8325426;28;20083;-48
2020/12/27 13:43:36;;;;;;;2.77;2.03;;;18.90;30.10;;;;;;8325386;28;20104;-49
2020/12/27 13:47:37;;;;;;;4.43;2.60;;;18.90;30.10;;;;;;8323105;28;20052;-49
2020/12/27 13:51:37;;;;;;;2.40;1.90;;;18.90;30.00;;;;;;8342232;28;20113;-49
2020/12/27 13:55:38;;;;;;;2.77;2.20;;;18.90;30.00;;;;;;8337004;28;20040;-49
2020/12/27 13:59:38;;;;;;;3.53;2.30;;;18.90;30.00;;;;;;8327536;28;20037;-49
2020/12/27 14:03:39;;;;;;;2.97;2.37;;;18.90;30.00;;;;;;8358332;28;20037;-51
2020/12/27 14:07:40;;;;;;;3.35;2.20;;;18.90;30.00;;;;;;8362374;28;20037;-48
2020/12/27 14:11:41;;;;;;;3.20;2.10;;;18.90;30.00;;;;;;8326693;28;20422;-48
2020/12/27 14:15:41;;;;;;;2.67;2.03;;;18.90;30.00;;;;;;8324927;28;20037;-48
2020/12/27 14:19:42;;;;;;;3.30;2.63;;;18.90;30.00;;;;;;8324428;28;20037;-48
2020/12/27 14:23:43;;;;;;;3.07;2.10;;;18.90;30.00;;;;;;8357310;28;20397;-48
2020/12/27 14:27:43;;;;;;;2.40;1.87;;;18.90;30.00;;;;;;8356881;28;20048;-49
2020/12/27 14:31:44;;;;;;;3.97;2.03;;;18.90;30.00;;;;;;8335605;28;20069;-48
2020/12/27 14:35:44;;;;;;;2.57;2.20;;;18.90;30.00;;;;;;8355324;28;20041;-48
2020/12/27 14:39:45;;;;;;;2.57;2.10;;;18.90;30.00;;;;;;8350387;28;20045;-51
2020/12/27 14:43:46;;;;;;;3.67;2.40;;;18.90;30.00;;;;;;8335598;28;20025;-48
2020/12/27 14:47:46;;;;;;;3.47;2.33;;;18.90;30.00;;;;;;8328554;28;20132;-49
2020/12/27 14:51:47;;;;;;;3.07;2.23;;;18.90;30.00;;;;;;8344569;28;20033;-48
2020/12/27 14:55:47;;;;;;;3.07;2.40;;;18.90;30.00;;;;;;8363550;28;20049;-50
2020/12/27 14:59:48;;;;;;;2.93;2.30;;;18.90;30.00;;;;;;8360117;28;20104;-48
2020/12/27 15:03:48;;;;;;;3.83;2.43;;;18.90;30.00;;;;;;8344239;28;20045;-51
2020/12/27 15:07:49;;;;;;;2.97;2.53;;;18.90;30.00;;;;;;8362671;28;20052;-48
2020/12/27 15:11:50;;;;;;;3.38;2.55;;;18.90;30.00;;;;;;8329710;28;20442;-47
2020/12/27 15:15:51;;;;;;;2.87;2.30;;;18.90;30.00;;;;;;8332933;28;20033;-48
2020/12/27 15:19:52;;;;;;;4.40;2.70;;;18.90;30.00;;;;;;8330921;28;20076;-48
2020/12/27 15:23:52;;;;;;;3.13;2.35;;;18.90;30.10;;;;;;8358787;28;20037;-52
2020/12/27 15:27:57;;;;;;;3.03;2.37;;;18.90;30.10;;;;;;8362523;28;20102;-50
2020/12/27 15:31:57;;;;;;;3.40;2.30;;;18.90;30.00;;;;;;8362103;28;20378;-48
2020/12/27 15:35:58;;;;;;;2.80;2.33;;;18.90;30.00;;;;;;8357543;28;20033;-48
2020/12/27 15:39:58;;;;;;;2.87;2.27;;;18.90;30.00;;;;;;8328751;28;20500;-47
2020/12/27 15:43:59;;;;;;;3.72;2.28;;;18.90;30.00;;;;;;8329147;28;20025;-48
2020/12/27 15:47:59;;;;;;;3.40;2.53;;;18.80;30.00;;;;;;8326410;28;20049;-48
2020/12/27 15:52:00;;;;;;;3.23;2.53;;;18.90;30.00;;;;;;8333064;28;20022;-48
2020/12/27 15:56:00;;;;;;;3.47;2.90;;;18.90;30.00;;;;;;8328211;28;20160;-48
2020/12/27 16:00:02;;;;;;;2.60;2.10;;;18.90;30.00;;;;;;8333900;28;20033;-48
2020/12/27 16:04:02;;;;;;;2.65;2.13;;;18.90;30.00;;;;;;8361108;28;20037;-48
2020/12/27 16:08:03;;;;;;;3.70;2.33;;;18.80;30.00;;;;;;8336254;28;20076;-47
2020/12/27 16:12:03;;;;;;;3.17;2.60;;;18.80;30.00;;;;;;8363166;28;20087;-47
2020/12/27 16:16:08;;;;;;;5.73;3.10;;;18.80;30.00;;;;;;8344427;28;20038;-49
2020/12/27 16:20:08;;;;;;;4.15;2.80;;;18.80;30.00;;;;;;8325772;28;20061;-49
2020/12/27 16:24:09;;;;;;;4.60;3.10;;;18.90;30.00;;;;;;8327373;28;20069;-48
2020/12/27 16:28:09;;;;;;;3.23;2.87;;;18.80;30.00;;;;;;8331779;28;20036;-50
2020/12/27 16:32:11;;;;;;;3.50;2.83;;;18.90;30.00;;;;;;8350521;28;20037;-50
2020/12/27 16:36:15;;;;;;;;;;;18.80;30.00;;;;;;8351136;28;20033;-49
2020/12/27 16:40:16;;;;;;;3.30;2.78;;;18.80;30.00;;;;;;8326839;28;19936;-49
2020/12/27 16:44:16;;;;;;;4.23;3.07;;;18.80;30.00;;;;;;8328377;28;20030;-49
2020/12/27 16:48:17;;;;;;;4.97;3.00;;;18.80;30.00;;;;;;8338396;28;20045;-49
2020/12/27 16:52:17;;;;;;;5.17;3.47;;;18.80;30.00;;;;;;8359404;28;20033;-49
2020/12/27 16:56:23;;;;;;;3.87;2.67;;;18.80;30.00;;;;;;8331354;28;20499;-48
2020/12/27 17:00:23;;;;;;;3.92;3.15;;;18.80;30.40;;;;;;8336278;28;20132;-48
2020/12/27 17:04:24;;;;;;;3.93;2.90;;;18.90;30.00;;;;;;8344757;28;20037;-50
2020/12/27 17:08:24;;;;;;;3.53;2.97;;;18.80;30.00;;;;;;8324102;28;20053;-49
2020/12/27 17:12:25;;;;;;;6.27;2.97;;;18.90;30.00;;;;;;8325466;28;20060;-49
2020/12/27 17:16:27;;;;;;;4.07;2.77;;;18.80;30.00;;;;;;8345286;28;20033;-49
2020/12/27 17:20:27;;;;;;;4.63;3.00;;;18.80;30.00;;;;;;8336809;28;20489;-49
2020/12/27 17:24:28;;;;;;;3.93;2.87;;;18.80;30.00;;;;;;8358978;28;20044;-49
2020/12/27 17:28:28;;;;;;;3.80;3.10;;;18.90;30.00;;;;;;8339013;28;20065;-48
2020/12/27 17:32:29;;;;;;;3.70;2.77;;;18.90;30.00;;;;;;8323668;28;20030;-48
2020/12/27 17:36:30;;;;;;;3.33;2.83;;;18.90;30.00;;;;;;8325572;28;20034;-48
2020/12/27 17:40:30;;;;;;;3.15;2.50;;;18.80;29.90;;;;;;8329838;28;20040;-49
2020/12/27 17:44:31;;;;;;;3.83;3.10;;;18.80;30.00;;;;;;8323500;28;20412;-49
2020/12/27 17:48:32;;;;;;;4.03;3.00;;;18.80;30.00;;;;;;8337079;28;20057;-48
2020/12/27 17:52:32;;;;;;;5.60;3.30;;;18.80;30.00;;;;;;8357825;28;20079;-49
2020/12/27 17:56:33;;;;;;;3.73;3.30;;;18.80;30.00;;;;;;8332262;28;20470;-48
2020/12/27 18:00:34;;;;;;;4.90;3.23;;;18.80;30.00;;;;;;8336762;28;20029;-48
2020/12/27 18:04:34;;;;;;;6.78;3.50;;;18.80;30.00;;;;;;8357431;28;20458;-51
2020/12/27 18:08:35;;;;;;;5.07;3.37;;;18.80;30.00;;;;;;8357027;28;20040;-51
2020/12/27 18:12:35;;;;;;;6.47;3.17;;;18.80;29.90;;;;;;8360630;28;20076;-50
2020/12/27 18:16:36;;;;;;;4.43;3.17;;;18.80;29.90;;;;;;8335237;28;20118;-49
2020/12/27 18:20:39;;;;;;;4.53;3.03;;;18.80;30.00;;;;;;8333713;28;20033;-48
2020/12/27 18:24:40;;;;;;;4.57;3.72;;;18.80;30.00;;;;;;8335440;28;20552;-50
2020/12/27 18:28:40;;;;;;;4.43;3.47;;;18.80;29.90;;;;;;8335229;28;20038;-49
2020/12/27 18:32:41;;;;;;;4.93;3.57;;;18.80;30.00;;;;;;8338032;28;20375;-49
2020/12/27 18:36:42;;;;;;;4.00;3.30;;;18.80;29.90;;;;;;8348085;28;20039;-48
2020/12/27 18:40:42;;;;;;;4.90;3.00;;;18.80;29.90;;;;;;8346796;28;20075;-48
2020/12/27 18:44:43;;;;;;;5.27;3.50;;;18.80;29.90;;;;;;8333162;28;20040;-49
2020/12/27 18:48:44;;;;;;;3.73;2.97;;;18.80;29.90;;;;;;8339680;28;20469;-49
2020/12/27 18:52:44;;;;;;;3.87;3.30;;;18.80;30.40;;;;;;8356764;28;20048;-48
2020/12/27 18:56:50;;;;;;;5.57;3.97;;;18.80;30.00;;;;;;8366316;28;20441;-49
2020/12/27 19:00:50;;;;;;;6.55;3.10;;;18.90;30.00;;;;;;8367808;28;20478;-47
2020/12/27 19:04:51;;;;;;;3.57;2.93;;;18.80;29.90;;;;;;8345387;28;20033;-48
2020/12/27 19:08:51;;;;;;;4.07;2.97;;;18.80;29.90;;;;;;8362376;28;20136;-49
2020/12/27 19:12:52;;;;;;;4.43;3.50;;;18.80;29.90;;;;;;8334752;28;20084;-49
2020/12/27 19:16:52;;;;;;;4.53;3.00;;;18.90;30.00;;;;;;8334664;28;20041;-47
2020/12/27 19:20:54;;;;;;;4.93;3.37;;;18.80;30.00;;;;;;8330794;28;20375;-49
2020/12/27 19:24:54;;;;;;;4.72;3.45;;;18.80;29.90;;;;;;8334017;28;20041;-49
2020/12/27 19:28:56;;;;;;;4.50;3.10;;;18.80;29.90;;;;;;8329097;28;20497;-48
2020/12/27 19:32:56;;;;;;;4.15;2.60;;;18.80;29.90;;;;;;8328016;28;20133;-48
2020/12/27 19:36:57;;;;;;;3.37;2.90;;;18.80;29.90;;;;;;8328915;28;20037;-49
2020/12/27 19:40:57;;;;;;;4.13;2.63;;;18.90;30.00;;;;;;8356896;28;20068;-49
2020/12/27 19:44:58;;;;;;;4.60;3.00;;;18.80;29.90;;;;;;8360285;28;20037;-49
2020/12/27 19:49:01;;;;;;;4.83;2.50;;;18.80;29.90;;;;;;8361769;28;20041;-48
2020/12/27 19:53:02;;;;;;;3.08;2.78;;;18.80;29.90;;;;;;8361189;28;20040;-49
2020/12/27 19:57:02;;;;;;;3.30;2.70;;;18.90;30.00;;;;;;8352094;28;20132;-50
2020/12/27 20:01:03;;;;;;;2.90;2.40;;;18.90;30.00;;;;;;8349082;28;20043;-49
2020/12/27 20:05:04;;;;;;;3.27;2.17;;;18.90;30.00;;;;;;8336820;28;20030;-48
2020/12/27 20:09:04;;;;;;;3.57;2.60;;;18.90;30.00;;;;;;8350975;28;20057;-49
2020/12/27 20:13:08;;;;;;;4.67;2.53;;;18.90;30.00;;;;;;8328085;28;20033;-53
2020/12/27 20:17:09;;;;;;;3.72;2.50;;;18.90;30.40;;;;;;8355655;28;20044;-51
2020/12/27 20:21:09;;;;;;;4.97;3.13;;;18.90;30.00;;;;;;8360774;28;20033;-51
2020/12/27 20:25:10;;;;;;;3.87;2.87;;;18.80;29.90;;;;;;8360722;28;20045;-49
2020/12/27 20:29:10;;;;;;;3.00;2.67;;;18.90;29.90;;;;;;8358639;28;20097;-50
2020/12/27 20:33:12;;;;;;;3.27;2.37;;;18.80;29.90;;;;;;8360200;28;20025;-49
2020/12/27 20:37:12;;;;;;;3.85;2.55;;;18.90;29.90;;;;;;8363726;28;20056;-49
2020/12/27 20:41:13;;;;;;;3.37;2.27;;;18.80;29.90;;;;;;8332859;28;20044;-50
2020/12/27 20:45:14;;;;;;;3.00;2.23;;;18.80;29.90;;;;;;8327048;28;20478;-51
2020/12/27 20:49:14;;;;;;;3.50;2.47;;;18.80;30.00;;;;;;8326994;28;20532;-50
2020/12/27 20:53:15;;;;;;;3.70;2.77;;;18.90;30.00;;;;;;8330815;28;20398;-52
2020/12/27 20:57:15;;;;;;;4.80;2.80;;;18.90;30.00;;;;;;8359473;28;20041;-47